sensor_id;sensor_type;location;lat;lon;timestamp;P1;durP1;ratioP1;P2;durP2;ratioP2
8281;SDS011;25606;42.686;23.136;2022-10-31T00:00:17;3.20;;;2.87;;
8281;SDS011;25606;42.686;23.136;2022-10-31T00:02:46;4.80;;;2.80;;
8281;SDS011;25606;42.686;23.136;2022-10-31T00:05:13;3.70;;;2.60;;
8281;SDS011;25606;42.686;23.136;2022-10-31T00:07:40;3.80;;;2.40;;
8281;SDS011;25606;42.686;23.136;2022-10-31T00:10:08;3.53;;;2.60;;
8281;SDS011;25606;42.686;23.136;2022-10-31T00:12:35;3.83;;;2.77;;
8281;SDS011;25606;42.686;23.136;2022-10-31T00:15:03;6.17;;;2.50;;
8281;SDS011;25606;42.686;23.136;2022-10-31T00:17:30;2.93;;;2.30;;
8281;SDS011;25606;42.686;23.136;2022-10-31T00:19:58;6.77;;;2.77;;
8281;SDS011;25606;42.686;23.136;2022-10-31T00:22:26;2.83;;;2.13;;
8281;SDS011;25606;42.686;23.136;2022-10-31T00:24:53;4.37;;;3.27;;
8281;SDS011;25606;42.686;23.136;2022-10-31T00:27:20;5.53;;;2.97;;
8281;SDS011;25606;42.686;23.136;2022-10-31T00:29:48;6.27;;;2.70;;
8281;SDS011;25606;42.686;23.136;2022-10-31T00:32:15;3.20;;;2.80;;
8281;SDS011;25606;42.686;23.136;2022-10-31T00:34:42;4.47;;;3.07;;
8281;SDS011;25606;42.686;23.136;2022-10-31T00:37:11;4.27;;;2.77;;
8281;SDS011;25606;42.686;23.136;2022-10-31T00:39:38;3.33;;;2.57;;
8281;SDS011;25606;42.686;23.136;2022-10-31T00:42:05;4.03;;;2.47;;
8281;SDS011;25606;42.686;23.136;2022-10-31T00:44:32;3.53;;;2.80;;
8281;SDS011;25606;42.686;23.136;2022-10-31T00:47:00;5.00;;;2.80;;
8281;SDS011;25606;42.686;23.136;2022-10-31T00:49:27;7.73;;;2.50;;
8281;SDS011;25606;42.686;23.136;2022-10-31T00:51:54;4.03;;;2.60;;
8281;SDS011;25606;42.686;23.136;2022-10-31T00:54:23;2.80;;;2.50;;
8281;SDS011;25606;42.686;23.136;2022-10-31T00:56:50;4.53;;;2.43;;
8281;SDS011;25606;42.686;23.136;2022-10-31T00:59:18;4.03;;;2.50;;
8281;SDS011;25606;42.686;23.136;2022-10-31T01:01:45;3.13;;;2.47;;
8281;SDS011;25606;42.686;23.136;2022-10-31T01:04:12;4.70;;;2.70;;
8281;SDS011;25606;42.686;23.136;2022-10-31T01:06:39;5.37;;;2.90;;
8281;SDS011;25606;42.686;23.136;2022-10-31T01:09:07;5.47;;;2.77;;
8281;SDS011;25606;42.686;23.136;2022-10-31T01:11:36;3.63;;;2.60;;
8281;SDS011;25606;42.686;23.136;2022-10-31T01:14:03;3.50;;;2.83;;
8281;SDS011;25606;42.686;23.136;2022-10-31T01:16:30;2.97;;;2.40;;
8281;SDS011;25606;42.686;23.136;2022-10-31T01:18:58;3.17;;;2.80;;
8281;SDS011;25606;42.686;23.136;2022-10-31T01:21:26;3.87;;;2.87;;
8281;SDS011;25606;42.686;23.136;2022-10-31T01:23:54;4.90;;;2.57;;
8281;SDS011;25606;42.686;23.136;2022-10-31T01:26:22;4.03;;;2.63;;
8281;SDS011;25606;42.686;23.136;2022-10-31T01:28:51;4.57;;;2.90;;
8281;SDS011;25606;42.686;23.136;2022-10-31T01:31:20;3.60;;;2.70;;
8281;SDS011;25606;42.686;23.136;2022-10-31T01:33:48;5.03;;;2.90;;
8281;SDS011;25606;42.686;23.136;2022-10-31T01:36:16;5.93;;;2.87;;
8281;SDS011;25606;42.686;23.136;2022-10-31T01:38:44;6.00;;;2.70;;
8281;SDS011;25606;42.686;23.136;2022-10-31T01:41:12;3.33;;;2.50;;
8281;SDS011;25606;42.686;23.136;2022-10-31T01:43:47;6.77;;;3.20;;
8281;SDS011;25606;42.686;23.136;2022-10-31T01:46:16;5.77;;;2.83;;
8281;SDS011;25606;42.686;23.136;2022-10-31T01:48:44;4.97;;;3.00;;
8281;SDS011;25606;42.686;23.136;2022-10-31T01:51:12;7.73;;;2.53;;
8281;SDS011;25606;42.686;23.136;2022-10-31T01:53:41;4.47;;;2.40;;
8281;SDS011;25606;42.686;23.136;2022-10-31T01:56:09;5.70;;;2.73;;
8281;SDS011;25606;42.686;23.136;2022-10-31T01:58:37;4.47;;;2.43;;
8281;SDS011;25606;42.686;23.136;2022-10-31T02:01:04;3.90;;;2.30;;
8281;SDS011;25606;42.686;23.136;2022-10-31T02:03:33;2.93;;;2.67;;
8281;SDS011;25606;42.686;23.136;2022-10-31T02:06:00;3.13;;;2.43;;
8281;SDS011;25606;42.686;23.136;2022-10-31T02:08:30;5.27;;;2.90;;
8281;SDS011;25606;42.686;23.136;2022-10-31T02:10:58;4.83;;;2.57;;
8281;SDS011;25606;42.686;23.136;2022-10-31T02:13:27;5.47;;;2.70;;
8281;SDS011;25606;42.686;23.136;2022-10-31T02:15:55;4.20;;;2.80;;
8281;SDS011;25606;42.686;23.136;2022-10-31T02:18:24;3.60;;;2.60;;
8281;SDS011;25606;42.686;23.136;2022-10-31T02:20:57;4.47;;;2.67;;
8281;SDS011;25606;42.686;23.136;2022-10-31T02:26:11;2.60;;;2.40;;
8281;SDS011;25606;42.686;23.136;2022-10-31T02:31:30;3.90;;;2.70;;
8281;SDS011;25606;42.686;23.136;2022-10-31T02:34:01;3.47;;;2.67;;
8281;SDS011;25606;42.686;23.136;2022-10-31T02:36:34;3.83;;;2.90;;
8281;SDS011;25606;42.686;23.136;2022-10-31T02:39:08;2.90;;;2.63;;
8281;SDS011;25606;42.686;23.136;2022-10-31T02:41:40;3.93;;;2.70;;
8281;SDS011;25606;42.686;23.136;2022-10-31T02:44:13;3.90;;;2.90;;
8281;SDS011;25606;42.686;23.136;2022-10-31T02:46:45;2.73;;;2.50;;
8281;SDS011;25606;42.686;23.136;2022-10-31T02:49:17;5.93;;;2.80;;
8281;SDS011;25606;42.686;23.136;2022-10-31T02:51:45;4.20;;;2.87;;
8281;SDS011;25606;42.686;23.136;2022-10-31T02:54:17;4.40;;;3.13;;
8281;SDS011;25606;42.686;23.136;2022-10-31T02:56:45;3.33;;;2.33;;
8281;SDS011;25606;42.686;23.136;2022-10-31T02:59:12;7.07;;;3.00;;
8281;SDS011;25606;42.686;23.136;2022-10-31T03:01:50;4.43;;;3.10;;
8281;SDS011;25606;42.686;23.136;2022-10-31T03:07:08;2.97;;;2.67;;
8281;SDS011;25606;42.686;23.136;2022-10-31T03:09:39;6.23;;;2.87;;
8281;SDS011;25606;42.686;23.136;2022-10-31T03:12:10;4.00;;;2.70;;
8281;SDS011;25606;42.686;23.136;2022-10-31T03:14:40;6.53;;;2.90;;
8281;SDS011;25606;42.686;23.136;2022-10-31T03:17:11;5.83;;;3.50;;
8281;SDS011;25606;42.686;23.136;2022-10-31T03:19:42;4.13;;;2.80;;
8281;SDS011;25606;42.686;23.136;2022-10-31T03:22:12;3.17;;;2.70;;
8281;SDS011;25606;42.686;23.136;2022-10-31T03:24:42;4.93;;;2.90;;
8281;SDS011;25606;42.686;23.136;2022-10-31T03:27:11;4.67;;;2.73;;
8281;SDS011;25606;42.686;23.136;2022-10-31T03:29:40;4.80;;;3.27;;
8281;SDS011;25606;42.686;23.136;2022-10-31T03:32:11;3.30;;;2.90;;
8281;SDS011;25606;42.686;23.136;2022-10-31T03:34:39;3.73;;;3.40;;
8281;SDS011;25606;42.686;23.136;2022-10-31T03:37:09;4.93;;;3.40;;
8281;SDS011;25606;42.686;23.136;2022-10-31T03:39:36;3.93;;;3.47;;
8281;SDS011;25606;42.686;23.136;2022-10-31T03:42:07;5.23;;;3.13;;
8281;SDS011;25606;42.686;23.136;2022-10-31T03:44:36;5.17;;;3.17;;
8281;SDS011;25606;42.686;23.136;2022-10-31T03:47:06;4.70;;;2.93;;
8281;SDS011;25606;42.686;23.136;2022-10-31T03:49:35;6.00;;;3.13;;
8281;SDS011;25606;42.686;23.136;2022-10-31T03:52:04;4.40;;;2.80;;
8281;SDS011;25606;42.686;23.136;2022-10-31T03:54:36;5.23;;;2.63;;
8281;SDS011;25606;42.686;23.136;2022-10-31T03:57:05;5.77;;;3.10;;
8281;SDS011;25606;42.686;23.136;2022-10-31T03:59:34;4.80;;;2.93;;
8281;SDS011;25606;42.686;23.136;2022-10-31T04:02:03;4.63;;;3.53;;
8281;SDS011;25606;42.686;23.136;2022-10-31T04:04:34;6.40;;;3.10;;
8281;SDS011;25606;42.686;23.136;2022-10-31T04:07:02;4.83;;;3.53;;
8281;SDS011;25606;42.686;23.136;2022-10-31T04:09:31;5.63;;;3.50;;
8281;SDS011;25606;42.686;23.136;2022-10-31T04:12:00;4.50;;;3.40;;
8281;SDS011;25606;42.686;23.136;2022-10-31T04:14:29;4.60;;;3.00;;
8281;SDS011;25606;42.686;23.136;2022-10-31T04:16:58;4.17;;;3.30;;
8281;SDS011;25606;42.686;23.136;2022-10-31T04:19:26;4.10;;;3.47;;
8281;SDS011;25606;42.686;23.136;2022-10-31T04:21:54;5.00;;;3.00;;
8281;SDS011;25606;42.686;23.136;2022-10-31T04:24:22;3.93;;;3.10;;
8281;SDS011;25606;42.686;23.136;2022-10-31T04:26:49;5.60;;;3.23;;
8281;SDS011;25606;42.686;23.136;2022-10-31T04:29:18;4.50;;;3.30;;
8281;SDS011;25606;42.686;23.136;2022-10-31T04:31:45;4.60;;;3.50;;
8281;SDS011;25606;42.686;23.136;2022-10-31T04:34:12;6.60;;;3.67;;
8281;SDS011;25606;42.686;23.136;2022-10-31T04:36:40;7.27;;;3.60;;
8281;SDS011;25606;42.686;23.136;2022-10-31T04:39:09;5.63;;;3.93;;
8281;SDS011;25606;42.686;23.136;2022-10-31T04:41:37;6.33;;;3.93;;
8281;SDS011;25606;42.686;23.136;2022-10-31T04:44:04;5.67;;;3.83;;
8281;SDS011;25606;42.686;23.136;2022-10-31T04:46:31;5.80;;;3.90;;
8281;SDS011;25606;42.686;23.136;2022-10-31T04:48:59;4.70;;;4.30;;
8281;SDS011;25606;42.686;23.136;2022-10-31T04:51:26;6.13;;;4.03;;
8281;SDS011;25606;42.686;23.136;2022-10-31T04:53:54;6.73;;;4.07;;
8281;SDS011;25606;42.686;23.136;2022-10-31T04:56:23;7.20;;;4.50;;
8281;SDS011;25606;42.686;23.136;2022-10-31T04:58:52;6.97;;;4.13;;
8281;SDS011;25606;42.686;23.136;2022-10-31T05:01:19;4.80;;;4.23;;
8281;SDS011;25606;42.686;23.136;2022-10-31T05:03:47;6.03;;;4.43;;
8281;SDS011;25606;42.686;23.136;2022-10-31T05:06:15;6.37;;;4.13;;
8281;SDS011;25606;42.686;23.136;2022-10-31T05:08:42;7.77;;;4.40;;
8281;SDS011;25606;42.686;23.136;2022-10-31T05:11:10;6.97;;;4.77;;
8281;SDS011;25606;42.686;23.136;2022-10-31T05:13:40;4.97;;;4.13;;
8281;SDS011;25606;42.686;23.136;2022-10-31T05:16:12;7.07;;;4.53;;
8281;SDS011;25606;42.686;23.136;2022-10-31T05:18:40;5.20;;;4.17;;
8281;SDS011;25606;42.686;23.136;2022-10-31T05:21:07;6.03;;;4.70;;
8281;SDS011;25606;42.686;23.136;2022-10-31T05:23:35;5.73;;;4.33;;
8281;SDS011;25606;42.686;23.136;2022-10-31T05:26:02;5.63;;;4.60;;
8281;SDS011;25606;42.686;23.136;2022-10-31T05:28:30;6.30;;;4.70;;
8281;SDS011;25606;42.686;23.136;2022-10-31T05:30:59;5.30;;;4.33;;
8281;SDS011;25606;42.686;23.136;2022-10-31T05:33:26;6.13;;;4.30;;
8281;SDS011;25606;42.686;23.136;2022-10-31T05:35:53;5.33;;;4.20;;
8281;SDS011;25606;42.686;23.136;2022-10-31T05:38:21;5.50;;;4.73;;
8281;SDS011;25606;42.686;23.136;2022-10-31T05:40:48;5.63;;;4.60;;
8281;SDS011;25606;42.686;23.136;2022-10-31T05:43:15;7.20;;;4.60;;
8281;SDS011;25606;42.686;23.136;2022-10-31T05:45:43;6.13;;;4.30;;
8281;SDS011;25606;42.686;23.136;2022-10-31T05:48:11;7.77;;;4.07;;
8281;SDS011;25606;42.686;23.136;2022-10-31T05:50:41;6.13;;;4.17;;
8281;SDS011;25606;42.686;23.136;2022-10-31T05:53:08;5.70;;;4.30;;
8281;SDS011;25606;42.686;23.136;2022-10-31T05:55:35;6.20;;;3.83;;
8281;SDS011;25606;42.686;23.136;2022-10-31T05:58:03;6.00;;;4.10;;
8281;SDS011;25606;42.686;23.136;2022-10-31T06:00:30;7.03;;;4.33;;
8281;SDS011;25606;42.686;23.136;2022-10-31T06:02:59;6.00;;;4.37;;
8281;SDS011;25606;42.686;23.136;2022-10-31T06:05:28;7.37;;;4.77;;
8281;SDS011;25606;42.686;23.136;2022-10-31T06:07:56;5.10;;;4.40;;
8281;SDS011;25606;42.686;23.136;2022-10-31T06:10:24;8.13;;;4.37;;
8281;SDS011;25606;42.686;23.136;2022-10-31T06:12:51;5.67;;;4.70;;
8281;SDS011;25606;42.686;23.136;2022-10-31T06:15:18;5.77;;;4.27;;
8281;SDS011;25606;42.686;23.136;2022-10-31T06:17:46;5.27;;;4.57;;
8281;SDS011;25606;42.686;23.136;2022-10-31T06:20:13;6.67;;;4.43;;
8281;SDS011;25606;42.686;23.136;2022-10-31T06:22:42;6.43;;;4.70;;
8281;SDS011;25606;42.686;23.136;2022-10-31T06:25:09;8.57;;;4.70;;
8281;SDS011;25606;42.686;23.136;2022-10-31T06:27:36;6.10;;;4.80;;
8281;SDS011;25606;42.686;23.136;2022-10-31T06:30:04;5.73;;;4.80;;
8281;SDS011;25606;42.686;23.136;2022-10-31T06:32:31;6.87;;;4.57;;
8281;SDS011;25606;42.686;23.136;2022-10-31T06:34:59;5.23;;;4.73;;
8281;SDS011;25606;42.686;23.136;2022-10-31T06:37:26;6.00;;;4.50;;
8281;SDS011;25606;42.686;23.136;2022-10-31T06:39:55;5.03;;;4.53;;
8281;SDS011;25606;42.686;23.136;2022-10-31T06:42:22;6.87;;;4.83;;
8281;SDS011;25606;42.686;23.136;2022-10-31T06:44:51;9.33;;;4.53;;
8281;SDS011;25606;42.686;23.136;2022-10-31T06:47:18;8.17;;;5.10;;
8281;SDS011;25606;42.686;23.136;2022-10-31T06:49:45;5.93;;;4.57;;
8281;SDS011;25606;42.686;23.136;2022-10-31T06:52:13;5.23;;;4.70;;
8281;SDS011;25606;42.686;23.136;2022-10-31T06:54:40;7.60;;;4.83;;
8281;SDS011;25606;42.686;23.136;2022-10-31T06:57:09;6.17;;;5.00;;
8281;SDS011;25606;42.686;23.136;2022-10-31T06:59:37;5.97;;;4.83;;
8281;SDS011;25606;42.686;23.136;2022-10-31T07:02:04;9.77;;;5.83;;
8281;SDS011;25606;42.686;23.136;2022-10-31T07:04:32;7.63;;;6.13;;
8281;SDS011;25606;42.686;23.136;2022-10-31T07:06:59;7.60;;;5.63;;
8281;SDS011;25606;42.686;23.136;2022-10-31T07:09:26;7.67;;;5.77;;
8281;SDS011;25606;42.686;23.136;2022-10-31T07:11:53;8.63;;;5.20;;
8281;SDS011;25606;42.686;23.136;2022-10-31T07:14:22;8.67;;;6.03;;
8281;SDS011;25606;42.686;23.136;2022-10-31T07:16:49;7.03;;;4.97;;
8281;SDS011;25606;42.686;23.136;2022-10-31T07:19:17;6.97;;;5.67;;
8281;SDS011;25606;42.686;23.136;2022-10-31T07:21:44;8.83;;;6.23;;
8281;SDS011;25606;42.686;23.136;2022-10-31T07:24:12;6.87;;;5.73;;
8281;SDS011;25606;42.686;23.136;2022-10-31T07:26:39;10.33;;;8.30;;
8281;SDS011;25606;42.686;23.136;2022-10-31T07:29:07;9.10;;;5.40;;
8281;SDS011;25606;42.686;23.136;2022-10-31T07:31:36;7.40;;;5.43;;
8281;SDS011;25606;42.686;23.136;2022-10-31T07:34:05;8.30;;;5.57;;
8281;SDS011;25606;42.686;23.136;2022-10-31T07:36:32;6.57;;;5.17;;
8281;SDS011;25606;42.686;23.136;2022-10-31T07:39:07;6.33;;;5.60;;
8281;SDS011;25606;42.686;23.136;2022-10-31T07:41:35;8.27;;;6.90;;
8281;SDS011;25606;42.686;23.136;2022-10-31T07:44:02;7.60;;;5.13;;
8281;SDS011;25606;42.686;23.136;2022-10-31T07:46:30;8.07;;;5.77;;
8281;SDS011;25606;42.686;23.136;2022-10-31T07:49:01;7.07;;;5.33;;
8281;SDS011;25606;42.686;23.136;2022-10-31T07:51:29;14.80;;;11.23;;
8281;SDS011;25606;42.686;23.136;2022-10-31T07:53:56;7.57;;;4.90;;
8281;SDS011;25606;42.686;23.136;2022-10-31T07:56:23;9.33;;;5.00;;
8281;SDS011;25606;42.686;23.136;2022-10-31T07:58:51;24.63;;;18.03;;
8281;SDS011;25606;42.686;23.136;2022-10-31T08:01:18;10.37;;;6.00;;
8281;SDS011;25606;42.686;23.136;2022-10-31T08:03:45;5.67;;;4.80;;
8281;SDS011;25606;42.686;23.136;2022-10-31T08:06:14;7.93;;;5.00;;
8281;SDS011;25606;42.686;23.136;2022-10-31T08:08:41;6.27;;;5.17;;
8281;SDS011;25606;42.686;23.136;2022-10-31T08:11:09;8.43;;;4.97;;
8281;SDS011;25606;42.686;23.136;2022-10-31T08:13:36;5.63;;;4.67;;
8281;SDS011;25606;42.686;23.136;2022-10-31T08:16:04;8.73;;;5.60;;
8281;SDS011;25606;42.686;23.136;2022-10-31T08:18:32;5.83;;;4.93;;
8281;SDS011;25606;42.686;23.136;2022-10-31T08:21:02;5.93;;;4.60;;
8281;SDS011;25606;42.686;23.136;2022-10-31T08:23:31;7.77;;;5.07;;
8281;SDS011;25606;42.686;23.136;2022-10-31T08:25:58;6.77;;;5.10;;
8281;SDS011;25606;42.686;23.136;2022-10-31T08:28:25;5.30;;;4.80;;
8281;SDS011;25606;42.686;23.136;2022-10-31T08:30:53;8.30;;;5.20;;
8281;SDS011;25606;42.686;23.136;2022-10-31T08:33:20;6.27;;;5.07;;
8281;SDS011;25606;42.686;23.136;2022-10-31T08:35:47;8.13;;;5.80;;
8281;SDS011;25606;42.686;23.136;2022-10-31T08:38:15;8.93;;;6.00;;
8281;SDS011;25606;42.686;23.136;2022-10-31T08:40:47;6.33;;;5.40;;
8281;SDS011;25606;42.686;23.136;2022-10-31T08:43:16;7.53;;;5.90;;
8281;SDS011;25606;42.686;23.136;2022-10-31T08:45:43;7.77;;;6.10;;
8281;SDS011;25606;42.686;23.136;2022-10-31T08:48:12;6.77;;;6.13;;
8281;SDS011;25606;42.686;23.136;2022-10-31T08:50:39;7.67;;;5.60;;
8281;SDS011;25606;42.686;23.136;2022-10-31T08:53:12;7.03;;;5.47;;
8281;SDS011;25606;42.686;23.136;2022-10-31T08:55:39;9.00;;;5.97;;
8281;SDS011;25606;42.686;23.136;2022-10-31T08:58:09;8.67;;;6.37;;
8281;SDS011;25606;42.686;23.136;2022-10-31T09:00:36;9.77;;;5.83;;
8281;SDS011;25606;42.686;23.136;2022-10-31T09:03:04;12.90;;;8.83;;
8281;SDS011;25606;42.686;23.136;2022-10-31T09:05:32;7.53;;;5.10;;
8281;SDS011;25606;42.686;23.136;2022-10-31T09:08:00;6.30;;;5.27;;
8281;SDS011;25606;42.686;23.136;2022-10-31T09:10:28;5.10;;;4.60;;
8281;SDS011;25606;42.686;23.136;2022-10-31T09:12:56;6.20;;;5.60;;
8281;SDS011;25606;42.686;23.136;2022-10-31T09:15:26;6.10;;;5.37;;
8281;SDS011;25606;42.686;23.136;2022-10-31T09:17:53;7.63;;;6.10;;
8281;SDS011;25606;42.686;23.136;2022-10-31T09:20:21;6.73;;;5.90;;
8281;SDS011;25606;42.686;23.136;2022-10-31T09:22:55;8.30;;;4.73;;
8281;SDS011;25606;42.686;23.136;2022-10-31T09:25:22;7.10;;;4.43;;
8281;SDS011;25606;42.686;23.136;2022-10-31T09:27:50;6.43;;;4.30;;
8281;SDS011;25606;42.686;23.136;2022-10-31T09:30:17;6.47;;;4.35;;
8281;SDS011;25606;42.686;23.136;2022-10-31T09:32:46;5.88;;;4.15;;
8281;SDS011;25606;42.686;23.136;2022-10-31T09:35:13;6.57;;;4.43;;
8281;SDS011;25606;42.686;23.136;2022-10-31T09:37:40;5.57;;;3.95;;
8281;SDS011;25606;42.686;23.136;2022-10-31T09:40:08;9.95;;;5.57;;
8281;SDS011;25606;42.686;23.136;2022-10-31T09:42:45;10.88;;;4.70;;
8281;SDS011;25606;42.686;23.136;2022-10-31T09:45:16;6.50;;;4.28;;
8281;SDS011;25606;42.686;23.136;2022-10-31T09:47:50;4.93;;;4.20;;
8281;SDS011;25606;42.686;23.136;2022-10-31T09:50:19;12.50;;;6.47;;
8281;SDS011;25606;42.686;23.136;2022-10-31T09:52:51;7.53;;;4.65;;
8281;SDS011;25606;42.686;23.136;2022-10-31T09:55:31;6.90;;;4.47;;
8281;SDS011;25606;42.686;23.136;2022-10-31T09:58:02;6.15;;;4.40;;
8281;SDS011;25606;42.686;23.136;2022-10-31T10:00:29;5.95;;;4.43;;
8281;SDS011;25606;42.686;23.136;2022-10-31T10:03:01;7.47;;;4.38;;
8281;SDS011;25606;42.686;23.136;2022-10-31T10:05:32;6.28;;;3.90;;
8281;SDS011;25606;42.686;23.136;2022-10-31T10:08:07;5.57;;;4.13;;
8281;SDS011;25606;42.686;23.136;2022-10-31T10:10:38;7.57;;;4.53;;
8281;SDS011;25606;42.686;23.136;2022-10-31T10:13:21;5.85;;;4.63;;
8281;SDS011;25606;42.686;23.136;2022-10-31T10:15:54;10.10;;;5.28;;
8281;SDS011;25606;42.686;23.136;2022-10-31T10:18:28;8.93;;;4.60;;
8281;SDS011;25606;42.686;23.136;2022-10-31T10:21:04;8.73;;;4.97;;
8281;SDS011;25606;42.686;23.136;2022-10-31T10:23:38;14.15;;;6.32;;
8281;SDS011;25606;42.686;23.136;2022-10-31T10:26:10;11.10;;;6.18;;
8281;SDS011;25606;42.686;23.136;2022-10-31T10:28:41;12.88;;;7.13;;
8281;SDS011;25606;42.686;23.136;2022-10-31T10:31:12;10.98;;;5.53;;
8281;SDS011;25606;42.686;23.136;2022-10-31T10:33:42;10.73;;;7.40;;
8281;SDS011;25606;42.686;23.136;2022-10-31T10:36:13;12.13;;;5.07;;
8281;SDS011;25606;42.686;23.136;2022-10-31T10:38:44;8.63;;;4.43;;
8281;SDS011;25606;42.686;23.136;2022-10-31T10:41:14;7.32;;;4.55;;
8281;SDS011;25606;42.686;23.136;2022-10-31T10:43:43;5.43;;;4.35;;
8281;SDS011;25606;42.686;23.136;2022-10-31T10:46:14;11.65;;;5.13;;
8281;SDS011;25606;42.686;23.136;2022-10-31T10:49:04;10.30;;;5.35;;
8281;SDS011;25606;42.686;23.136;2022-10-31T10:51:35;5.78;;;4.13;;
8281;SDS011;25606;42.686;23.136;2022-10-31T10:54:21;8.73;;;4.85;;
8281;SDS011;25606;42.686;23.136;2022-10-31T10:56:55;10.10;;;5.10;;
8281;SDS011;25606;42.686;23.136;2022-10-31T10:59:26;10.13;;;5.70;;
8281;SDS011;25606;42.686;23.136;2022-10-31T11:01:55;15.43;;;9.43;;
8281;SDS011;25606;42.686;23.136;2022-10-31T11:04:26;22.13;;;19.35;;
8281;SDS011;25606;42.686;23.136;2022-10-31T11:07:02;35.40;;;27.25;;
8281;SDS011;25606;42.686;23.136;2022-10-31T11:09:29;23.10;;;16.95;;
8281;SDS011;25606;42.686;23.136;2022-10-31T11:11:57;23.92;;;13.43;;
8281;SDS011;25606;42.686;23.136;2022-10-31T11:14:24;12.50;;;8.98;;
8281;SDS011;25606;42.686;23.136;2022-10-31T11:16:54;18.70;;;11.40;;
8281;SDS011;25606;42.686;23.136;2022-10-31T11:19:23;17.15;;;7.47;;
8281;SDS011;25606;42.686;23.136;2022-10-31T11:21:53;12.48;;;5.15;;
8281;SDS011;25606;42.686;23.136;2022-10-31T11:24:21;14.77;;;5.90;;
8281;SDS011;25606;42.686;23.136;2022-10-31T11:26:50;13.43;;;5.70;;
8281;SDS011;25606;42.686;23.136;2022-10-31T11:29:20;16.88;;;8.55;;
8281;SDS011;25606;42.686;23.136;2022-10-31T11:31:50;11.18;;;6.32;;
8281;SDS011;25606;42.686;23.136;2022-10-31T11:34:23;12.02;;;7.05;;
8281;SDS011;25606;42.686;23.136;2022-10-31T11:36:54;14.05;;;9.35;;
8281;SDS011;25606;42.686;23.136;2022-10-31T11:39:25;12.50;;;5.18;;
8281;SDS011;25606;42.686;23.136;2022-10-31T11:41:53;8.82;;;3.90;;
8281;SDS011;25606;42.686;23.136;2022-10-31T11:44:21;9.13;;;3.67;;
8281;SDS011;25606;42.686;23.136;2022-10-31T11:46:50;87.05;;;22.73;;
8281;SDS011;25606;42.686;23.136;2022-10-31T11:49:18;6.72;;;3.65;;
8281;SDS011;25606;42.686;23.136;2022-10-31T11:51:47;6.30;;;3.58;;
8281;SDS011;25606;42.686;23.136;2022-10-31T11:54:19;6.72;;;4.07;;
8281;SDS011;25606;42.686;23.136;2022-10-31T11:56:47;6.75;;;4.00;;
8281;SDS011;25606;42.686;23.136;2022-10-31T11:59:16;11.68;;;4.18;;
8281;SDS011;25606;42.686;23.136;2022-10-31T12:01:47;7.90;;;3.83;;
8281;SDS011;25606;42.686;23.136;2022-10-31T12:04:14;10.23;;;3.95;;
8281;SDS011;25606;42.686;23.136;2022-10-31T12:06:42;9.73;;;4.38;;
8281;SDS011;25606;42.686;23.136;2022-10-31T12:09:15;10.02;;;4.72;;
8281;SDS011;25606;42.686;23.136;2022-10-31T12:11:49;7.70;;;3.50;;
8281;SDS011;25606;42.686;23.136;2022-10-31T12:14:23;9.35;;;4.05;;
8281;SDS011;25606;42.686;23.136;2022-10-31T12:16:54;8.13;;;3.63;;
8281;SDS011;25606;42.686;23.136;2022-10-31T12:19:25;10.38;;;4.00;;
8281;SDS011;25606;42.686;23.136;2022-10-31T12:21:59;13.57;;;4.65;;
8281;SDS011;25606;42.686;23.136;2022-10-31T12:24:34;9.05;;;4.05;;
8281;SDS011;25606;42.686;23.136;2022-10-31T12:27:08;6.47;;;3.83;;
8281;SDS011;25606;42.686;23.136;2022-10-31T12:29:43;8.50;;;3.97;;
8281;SDS011;25606;42.686;23.136;2022-10-31T12:32:20;6.82;;;3.35;;
8281;SDS011;25606;42.686;23.136;2022-10-31T12:34:51;8.18;;;3.92;;
8281;SDS011;25606;42.686;23.136;2022-10-31T12:37:26;7.68;;;3.15;;
8281;SDS011;25606;42.686;23.136;2022-10-31T12:39:58;6.20;;;3.60;;
8281;SDS011;25606;42.686;23.136;2022-10-31T12:42:35;4.15;;;3.35;;
8281;SDS011;25606;42.686;23.136;2022-10-31T12:45:18;5.55;;;3.38;;
8281;SDS011;25606;42.686;23.136;2022-10-31T12:47:57;4.80;;;3.13;;
8281;SDS011;25606;42.686;23.136;2022-10-31T12:50:29;3.78;;;3.03;;
8281;SDS011;25606;42.686;23.136;2022-10-31T12:53:02;4.22;;;3.03;;
8281;SDS011;25606;42.686;23.136;2022-10-31T12:55:37;5.28;;;3.03;;
8281;SDS011;25606;42.686;23.136;2022-10-31T12:58:09;4.77;;;3.23;;
8281;SDS011;25606;42.686;23.136;2022-10-31T13:00:38;6.00;;;3.10;;
8281;SDS011;25606;42.686;23.136;2022-10-31T13:03:14;7.93;;;3.50;;
8281;SDS011;25606;42.686;23.136;2022-10-31T13:05:45;5.93;;;3.20;;
8281;SDS011;25606;42.686;23.136;2022-10-31T13:08:14;6.90;;;4.40;;
8281;SDS011;25606;42.686;23.136;2022-10-31T13:10:43;7.87;;;4.23;;
8281;SDS011;25606;42.686;23.136;2022-10-31T13:13:14;7.47;;;3.57;;
8281;SDS011;25606;42.686;23.136;2022-10-31T13:15:45;5.57;;;3.10;;
8281;SDS011;25606;42.686;23.136;2022-10-31T13:18:16;7.03;;;3.00;;
8281;SDS011;25606;42.686;23.136;2022-10-31T13:20:45;4.60;;;2.90;;
8281;SDS011;25606;42.686;23.136;2022-10-31T13:23:14;6.70;;;3.27;;
8281;SDS011;25606;42.686;23.136;2022-10-31T13:25:44;4.03;;;3.07;;
8281;SDS011;25606;42.686;23.136;2022-10-31T13:28:19;5.47;;;3.13;;
8281;SDS011;25606;42.686;23.136;2022-10-31T13:30:48;9.20;;;3.40;;
8281;SDS011;25606;42.686;23.136;2022-10-31T13:33:17;4.70;;;3.27;;
8281;SDS011;25606;42.686;23.136;2022-10-31T13:35:46;7.47;;;3.50;;
8281;SDS011;25606;42.686;23.136;2022-10-31T13:38:18;10.50;;;4.20;;
8281;SDS011;25606;42.686;23.136;2022-10-31T13:40:50;6.57;;;3.60;;
8281;SDS011;25606;42.686;23.136;2022-10-31T13:43:22;6.00;;;2.90;;
8281;SDS011;25606;42.686;23.136;2022-10-31T13:45:52;4.47;;;2.90;;
8281;SDS011;25606;42.686;23.136;2022-10-31T13:51:11;8.93;;;3.10;;
8281;SDS011;25606;42.686;23.136;2022-10-31T13:53:39;7.77;;;3.53;;
8281;SDS011;25606;42.686;23.136;2022-10-31T13:59:03;6.60;;;3.33;;
8281;SDS011;25606;42.686;23.136;2022-10-31T14:01:31;5.43;;;3.03;;
8281;SDS011;25606;42.686;23.136;2022-10-31T14:04:00;7.43;;;3.33;;
8281;SDS011;25606;42.686;23.136;2022-10-31T14:06:38;8.00;;;3.37;;
8281;SDS011;25606;42.686;23.136;2022-10-31T14:09:15;4.03;;;3.00;;
8281;SDS011;25606;42.686;23.136;2022-10-31T14:11:45;5.10;;;3.30;;
8281;SDS011;25606;42.686;23.136;2022-10-31T14:14:15;5.13;;;3.33;;
8281;SDS011;25606;42.686;23.136;2022-10-31T14:16:43;8.47;;;3.13;;
8281;SDS011;25606;42.686;23.136;2022-10-31T14:19:14;4.33;;;3.27;;
8281;SDS011;25606;42.686;23.136;2022-10-31T14:21:43;6.73;;;2.90;;
8281;SDS011;25606;42.686;23.136;2022-10-31T14:24:14;8.50;;;2.93;;
8281;SDS011;25606;42.686;23.136;2022-10-31T14:26:51;7.13;;;2.97;;
8281;SDS011;25606;42.686;23.136;2022-10-31T14:29:24;4.93;;;3.00;;
8281;SDS011;25606;42.686;23.136;2022-10-31T14:31:52;6.60;;;3.20;;
8281;SDS011;25606;42.686;23.136;2022-10-31T14:34:22;5.27;;;3.07;;
8281;SDS011;25606;42.686;23.136;2022-10-31T14:36:54;5.03;;;3.20;;
8281;SDS011;25606;42.686;23.136;2022-10-31T14:39:24;4.53;;;2.97;;
8281;SDS011;25606;42.686;23.136;2022-10-31T14:41:56;8.03;;;3.40;;
8281;SDS011;25606;42.686;23.136;2022-10-31T14:44:32;5.40;;;2.90;;
8281;SDS011;25606;42.686;23.136;2022-10-31T14:47:05;7.43;;;3.37;;
8281;SDS011;25606;42.686;23.136;2022-10-31T14:49:49;4.30;;;3.10;;
8281;SDS011;25606;42.686;23.136;2022-10-31T14:52:18;10.30;;;3.27;;
8281;SDS011;25606;42.686;23.136;2022-10-31T14:54:47;6.00;;;3.33;;
8281;SDS011;25606;42.686;23.136;2022-10-31T14:57:16;6.33;;;3.47;;
8281;SDS011;25606;42.686;23.136;2022-10-31T14:59:48;4.67;;;3.40;;
8281;SDS011;25606;42.686;23.136;2022-10-31T15:02:17;6.93;;;3.20;;
8281;SDS011;25606;42.686;23.136;2022-10-31T15:04:46;5.03;;;3.20;;
8281;SDS011;25606;42.686;23.136;2022-10-31T15:07:14;7.83;;;3.73;;
8281;SDS011;25606;42.686;23.136;2022-10-31T15:09:43;5.90;;;3.00;;
8281;SDS011;25606;42.686;23.136;2022-10-31T15:12:21;9.03;;;3.80;;